Time;durP1;ratioP1;P1;durP2;ratioP2;P2;SDS_P1;SDS_P2;PMS_P1;PMS_P2;Temp;Humidity;BMP_temperature;BMP_pressure;BME280_temperature;BME280_humidity;BME280_pressure;Samples;Min_cycle;Max_cycle;Signal;HPM_P1;HPM_P2
2022/09/22 00:00:16;;;;;;;5.32;2.83;;;7.30;99.90;;;;;;5031922;28;20049;-75
2022/09/22 00:02:42;;;;;;;12.73;2.88;;;7.30;99.90;;;;;;5058572;28;20037;-73
2022/09/22 00:05:07;;;;;;;5.72;2.72;;;7.20;99.90;;;;;;5058617;28;20400;-75
2022/09/22 00:07:33;;;;;;;6.65;3.20;;;7.20;99.90;;;;;;5058444;28;20140;-73
2022/09/22 00:09:58;;;;;;;6.97;2.58;;;7.20;99.90;;;;;;5058514;28;20045;-74
2022/09/22 00:12:24;;;;;;;8.55;3.00;;;7.20;99.90;;;;;;5058602;28;20517;-72
2022/09/22 00:14:50;;;;;;;5.50;3.08;;;7.20;99.90;;;;;;5057348;28;20049;-74
2022/09/22 00:17:16;;;;;;;4.18;2.60;;;7.20;99.90;;;;;;5041389;28;20079;-74
2022/09/22 00:19:41;;;;;;;10.27;3.03;;;7.10;99.90;;;;;;5058432;28;20060;-73
2022/09/22 00:22:07;;;;;;;8.05;2.92;;;7.10;99.90;;;;;;5058330;28;20075;-73
2022/09/22 00:24:33;;;;;;;4.97;3.10;;;7.20;99.90;;;;;;5040723;28;20476;-73
2022/09/22 00:26:59;;;;;;;4.70;2.85;;;7.10;99.90;;;;;;5058107;28;20068;-74
2022/09/22 00:29:27;;;;;;;8.93;3.13;;;7.00;99.90;;;;;;5048982;28;20049;-73
2022/09/22 00:31:53;;;;;;;5.65;2.80;;;7.00;99.90;;;;;;5037965;28;20042;-74
2022/09/22 00:34:22;;;;;;;5.93;2.80;;;7.00;99.90;;;;;;5038196;28;20053;-74
2022/09/22 00:36:48;;;;;;;7.88;2.60;;;7.00;99.90;;;;;;5038250;28;20053;-73
2022/09/22 00:39:15;;;;;;;6.82;2.80;;;7.00;99.90;;;;;;5038016;28;20046;-73
2022/09/22 00:41:44;;;;;;;5.32;2.72;;;7.00;99.90;;;;;;5038263;28;20048;-74
2022/09/22 00:44:25;;;;;;;5.43;3.00;;;6.90;99.90;;;;;;5037687;28;20041;-74
2022/09/22 00:46:55;;;;;;;6.68;3.55;;;6.90;99.90;;;;;;5038240;28;20405;-74
2022/09/22 00:49:37;;;;;;;7.47;2.80;;;6.90;99.90;;;;;;5037930;28;20048;-73
2022/09/22 00:52:04;;;;;;;6.95;2.90;;;6.80;99.90;;;;;;5037789;28;20045;-74
2022/09/22 00:54:31;;;;;;;7.45;2.65;;;6.80;99.90;;;;;;5037642;28;20401;-74
2022/09/22 00:57:04;;;;;;;4.88;2.58;;;6.80;99.90;;;;;;5037735;28;20056;-72
2022/09/22 00:59:30;;;;;;;6.90;2.92;;;6.80;99.90;;;;;;5056456;28;20128;-74
2022/09/22 01:01:56;;;;;;;7.72;2.97;;;6.70;99.90;;;;;;5057742;28;20053;-73
2022/09/22 01:04:22;;;;;;;10.35;3.80;;;7.00;99.90;;;;;;5057154;28;20037;-73
2022/09/22 01:06:49;;;;;;;7.78;2.45;;;6.70;99.90;;;;;;5057147;28;20381;-75
2022/09/22 01:09:15;;;;;;;6.38;3.35;;;6.70;99.90;;;;;;5057315;28;20045;-73
2022/09/22 01:11:41;;;;;;;5.82;2.78;;;6.70;99.90;;;;;;5057414;28;20045;-73
2022/09/22 01:14:49;;;;;;;8.00;3.03;;;6.70;99.90;;;;;;5044098;28;20042;-74
2022/09/22 01:17:20;;;;;;;6.88;3.00;;;6.70;99.90;;;;;;5036886;28;20060;-73
2022/09/22 01:20:04;;;;;;;8.07;3.05;;;6.60;99.90;;;;;;5036993;28;20053;-74
2022/09/22 01:22:50;;;;;;;5.25;2.88;;;6.60;99.90;;;;;;5037323;28;20057;-74
2022/09/22 01:25:51;;;;;;;5.97;2.63;;;6.70;99.90;;;;;;5036988;28;20046;-72
2022/09/22 01:28:20;;;;;;;5.20;2.50;;;6.60;99.90;;;;;;5026561;28;20049;-73
2022/09/22 01:30:58;;;;;;;6.22;3.00;;;6.60;99.90;;;;;;5056787;28;20037;-72
2022/09/22 01:33:32;;;;;;;7.53;2.78;;;6.60;99.90;;;;;;5057097;28;20048;-73
2022/09/22 01:36:20;;;;;;;6.75;2.75;;;6.50;99.90;;;;;;5039439;28;20079;-73
2022/09/22 01:38:51;;;;;;;6.05;2.58;;;6.50;99.90;;;;;;5039319;28;20060;-74
2022/09/22 01:41:46;;;;;;;11.65;2.65;;;6.50;99.90;;;;;;5056935;28;20036;-73
2022/09/22 01:44:24;;;;;;;7.57;3.13;;;6.50;99.90;;;;;;5030409;28;20069;-72
2022/09/22 01:47:13;;;;;;;5.75;2.47;;;6.70;99.90;;;;;;5039062;28;20124;-73
2022/09/22 01:49:53;;;;;;;9.43;3.40;;;6.40;99.90;;;;;;5056785;28;20103;-76
2022/09/22 01:52:24;;;;;;;5.07;2.60;;;6.40;99.90;;;;;;5056482;28;20051;-74
2022/09/22 01:54:55;;;;;;;5.90;3.00;;;6.40;99.90;;;;;;5056308;28;20056;-75
2022/09/22 01:57:33;;;;;;;4.28;2.95;;;6.60;99.90;;;;;;5039459;28;20047;-74
2022/09/22 02:00:04;;;;;;;9.73;4.05;;;6.40;99.90;;;;;;5036407;28;20446;-73
2022/09/22 02:02:39;;;;;;;5.25;2.85;;;6.40;99.90;;;;;;5036486;28;20041;-74
2022/09/22 02:05:10;;;;;;;9.98;3.55;;;6.30;99.90;;;;;;5018926;28;20053;-73
2022/09/22 02:07:42;;;;;;;7.15;3.65;;;6.30;99.90;;;;;;5052334;28;20075;-73
2022/09/22 02:10:12;;;;;;;7.07;3.00;;;6.30;99.90;;;;;;5056573;28;20088;-74
2022/09/22 02:12:37;;;;;;;6.00;3.35;;;6.30;99.90;;;;;;5056306;28;20049;-74
2022/09/22 02:15:58;;;;;;;6.32;3.17;;;6.40;99.90;;;;;;5056362;28;20473;-72
2022/09/22 02:18:01;;;;;;;6.80;2.85;;;6.30;99.90;;;;;;5055824;28;20349;-73
2022/09/22 02:20:27;;;;;;;5.30;2.88;;;6.30;99.90;;;;;;5054019;28;20064;-73
2022/09/22 02:22:53;;;;;;;7.72;3.08;;;6.30;99.90;;;;;;5035158;28;20045;-73
2022/09/22 02:25:22;;;;;;;6.35;3.15;;;6.20;99.90;;;;;;5036228;28;20335;-73
2022/09/22 02:27:51;;;;;;;7.07;3.42;;;6.20;99.90;;;;;;5035911;28;20179;-73
2022/09/22 02:30:17;;;;;;;6.47;3.33;;;6.20;99.90;;;;;;5035817;28;20037;-73
2022/09/22 02:32:46;;;;;;;6.90;3.08;;;6.20;99.90;;;;;;5036062;28;20042;-73
2022/09/22 02:35:13;;;;;;;7.85;2.63;;;6.20;99.90;;;;;;5035886;28;20060;-74
2022/09/22 02:37:48;;;;;;;7.22;2.70;;;6.20;99.90;;;;;;5035992;28;20373;-73
2022/09/22 02:40:37;;;;;;;6.35;2.97;;;6.20;99.90;;;;;;5035675;28;20057;-73
2022/09/22 02:43:21;;;;;;;6.85;2.65;;;6.10;99.90;;;;;;5035638;28;20041;-74
2022/09/22 02:46:03;;;;;;;8.00;2.50;;;6.10;99.90;;;;;;5035878;28;20049;-74
2022/09/22 02:48:34;;;;;;;6.60;2.92;;;6.10;99.90;;;;;;5035660;28;20049;-74
2022/09/22 02:51:00;;;;;;;7.03;2.60;;;6.30;99.90;;;;;;5045180;28;20052;-73
2022/09/22 02:53:25;;;;;;;7.40;3.10;;;6.10;99.90;;;;;;5055682;28;20064;-72
2022/09/22 02:55:51;;;;;;;5.32;2.83;;;6.40;99.90;;;;;;5054784;28;20049;-73
2022/09/22 02:58:17;;;;;;;5.75;2.60;;;6.00;99.90;;;;;;5055275;28;20045;-74
2022/09/22 03:00:44;;;;;;;6.53;2.95;;;6.30;99.90;;;;;;5055446;28;20056;-73
2022/09/22 03:03:10;;;;;;;6.47;2.90;;;6.00;99.90;;;;;;5049053;28;20041;-74
2022/09/22 03:05:36;;;;;;;4.93;2.88;;;6.50;99.90;;;;;;5035605;28;20048;-73
2022/09/22 03:08:03;;;;;;;5.53;2.88;;;6.00;99.90;;;;;;5035120;28;20045;-75
2022/09/22 03:10:29;;;;;;;5.63;2.90;;;6.00;99.90;;;;;;5035249;28;20045;-73
2022/09/22 03:12:56;;;;;;;8.10;3.22;;;6.00;99.90;;;;;;5035413;28;20041;-73
2022/09/22 03:15:22;;;;;;;6.50;2.80;;;6.00;99.90;;;;;;5035281;28;20454;-73
2022/09/22 03:17:48;;;;;;;5.75;2.92;;;6.00;99.90;;;;;;5035198;28;20053;-74
2022/09/22 03:20:14;;;;;;;5.20;2.40;;;5.90;99.90;;;;;;5042764;28;20148;-74
2022/09/22 03:22:40;;;;;;;4.65;2.72;;;5.90;99.90;;;;;;5037397;28;20056;-74
2022/09/22 03:25:08;;;;;;;8.27;3.60;;;5.90;99.90;;;;;;5055179;28;20048;-73
2022/09/22 03:27:33;;;;;;;5.72;2.40;;;5.90;99.90;;;;;;5055118;28;20084;-73
2022/09/22 03:29:59;;;;;;;5.07;2.50;;;5.90;99.90;;;;;;5054960;28;20414;-74
2022/09/22 03:32:25;;;;;;;8.00;2.70;;;5.80;99.90;;;;;;5036968;28;20056;-75
2022/09/22 03:34:50;;;;;;;4.47;2.35;;;5.80;99.90;;;;;;5054385;28;20072;-73
2022/09/22 03:37:16;;;;;;;6.00;2.70;;;5.80;99.90;;;;;;5021377;28;20347;-73
2022/09/22 03:39:42;;;;;;;4.85;2.65;;;5.80;99.90;;;;;;5055070;28;20045;-74
2022/09/22 03:42:07;;;;;;;4.43;2.08;;;5.80;99.90;;;;;;5054626;28;20433;-73
2022/09/22 03:44:33;;;;;;;7.07;3.08;;;5.80;99.90;;;;;;5054448;28;20045;-73
2022/09/22 03:46:59;;;;;;;5.85;2.55;;;5.70;99.90;;;;;;5054716;28;20124;-73
2022/09/22 03:49:25;;;;;;;4.47;2.38;;;5.70;99.90;;;;;;5049461;28;20053;-74
2022/09/22 03:51:52;;;;;;;4.43;2.47;;;5.70;99.90;;;;;;5050481;28;20046;-74
2022/09/22 03:54:19;;;;;;;6.55;3.13;;;5.70;99.90;;;;;;5034839;28;20480;-73
2022/09/22 03:56:45;;;;;;;5.20;3.00;;;5.70;99.90;;;;;;5034674;28;20052;-73
2022/09/22 03:59:10;;;;;;;5.85;2.63;;;5.70;99.90;;;;;;5036808;28;20045;-73
2022/09/22 04:01:40;;;;;;;7.25;2.90;;;5.70;99.90;;;;;;5017662;28;20416;-71
2022/09/22 04:04:06;;;;;;;4.93;2.50;;;5.70;99.90;;;;;;5035201;28;20033;-72
2022/09/22 04:06:32;;;;;;;7.35;3.40;;;5.60;99.90;;;;;;5046567;28;20129;-73
2022/09/22 04:08:58;;;;;;;5.50;2.55;;;5.60;99.90;;;;;;5034170;28;20045;-74
2022/09/22 04:11:23;;;;;;;5.53;2.63;;;5.60;99.90;;;;;;5010162;28;20111;-73
2022/09/22 04:13:50;;;;;;;6.68;2.50;;;5.60;99.90;;;;;;5053926;28;20053;-73
2022/09/22 04:16:16;;;;;;;5.03;2.50;;;5.60;99.90;;;;;;5037025;28;20044;-74
2022/09/22 04:18:42;;;;;;;6.10;2.80;;;5.60;99.90;;;;;;5054612;28;20386;-73
2022/09/22 04:21:09;;;;;;;7.20;2.90;;;5.60;99.90;;;;;;5036662;28;20095;-73
2022/09/22 04:23:34;;;;;;;5.72;3.28;;;5.50;99.90;;;;;;5035928;28;20076;-75
2022/09/22 04:26:00;;;;;;;7.65;3.05;;;5.50;99.90;;;;;;5053797;28;20037;-72
2022/09/22 04:28:27;;;;;;;6.95;2.50;;;5.60;99.90;;;;;;5054536;28;20045;-72
2022/09/22 04:30:53;;;;;;;5.03;2.33;;;5.50;99.90;;;;;;5053587;28;20068;-73
2022/09/22 04:33:19;;;;;;;6.20;2.78;;;5.50;99.90;;;;;;5036644;28;20049;-72
2022/09/22 04:35:46;;;;;;;5.47;2.63;;;5.50;99.90;;;;;;5054616;28;20355;-73
2022/09/22 04:38:13;;;;;;;5.43;2.80;;;5.50;99.90;;;;;;5054822;28;20049;-75
2022/09/22 04:40:39;;;;;;;7.72;2.72;;;5.40;99.90;;;;;;5034587;28;20465;-73
2022/09/22 04:43:04;;;;;;;6.47;3.05;;;5.40;99.90;;;;;;5034240;28;20056;-75
2022/09/22 04:45:30;;;;;;;5.18;2.90;;;5.40;99.90;;;;;;5036008;28;20041;-75
2022/09/22 04:47:55;;;;;;;4.72;2.60;;;5.40;99.90;;;;;;5038222;28;20347;-74
2022/09/22 04:50:22;;;;;;;5.18;2.85;;;5.40;99.90;;;;;;5020493;28;20132;-74
2022/09/22 04:52:50;;;;;;;5.07;3.33;;;5.40;99.90;;;;;;5037854;28;20045;-74
2022/09/22 04:55:16;;;;;;;5.93;2.83;;;5.60;99.90;;;;;;5046652;28;20361;-74
2022/09/22 04:57:54;;;;;;;5.30;3.15;;;5.30;99.90;;;;;;5056150;28;20041;-74
2022/09/22 05:00:21;;;;;;;5.28;3.20;;;5.30;99.90;;;;;;5037312;28;20044;-72
2022/09/22 05:02:47;;;;;;;7.13;3.50;;;5.30;99.90;;;;;;5037478;28;20049;-72
2022/09/22 05:05:14;;;;;;;5.15;3.38;;;5.30;99.90;;;;;;5037398;28;20046;-72
2022/09/22 05:07:45;;;;;;;6.63;3.80;;;5.30;99.90;;;;;;5037567;28;20454;-72
2022/09/22 05:10:12;;;;;;;6.95;3.33;;;5.30;99.90;;;;;;5037435;28;20123;-75
2022/09/22 05:12:39;;;;;;;5.47;2.92;;;5.30;99.90;;;;;;5037189;28;20041;-74
2022/09/22 05:15:05;;;;;;;7.93;3.50;;;5.20;99.90;;;;;;5036926;28;20521;-73
2022/09/22 05:17:31;;;;;;;7.25;3.70;;;5.30;99.90;;;;;;5037342;28;20423;-74
2022/09/22 05:19:57;;;;;;;5.78;3.38;;;5.30;99.90;;;;;;5037202;28;20369;-74
2022/09/22 05:22:22;;;;;;;5.22;3.30;;;5.40;99.90;;;;;;5037434;28;20050;-73
2022/09/22 05:24:48;;;;;;;5.53;3.65;;;5.20;99.90;;;;;;5037036;28;20042;-74
2022/09/22 05:27:14;;;;;;;7.57;3.92;;;5.20;99.90;;;;;;5036907;28;20438;-74
2022/09/22 05:29:39;;;;;;;11.88;5.18;;;5.60;99.90;;;;;;5053886;28;20052;-72
2022/09/22 05:32:05;;;;;;;7.47;4.43;;;5.20;99.90;;;;;;5056466;28;20052;-73
2022/09/22 05:34:31;;;;;;;10.30;4.15;;;5.30;99.90;;;;;;5056747;28;20041;-74
2022/09/22 05:36:57;;;;;;;7.40;3.83;;;5.30;99.90;;;;;;5056966;28;20107;-74
2022/09/22 05:39:23;;;;;;;7.22;3.97;;;5.30;99.90;;;;;;5056502;28;20445;-73
2022/09/22 05:41:48;;;;;;;9.95;4.22;;;5.30;99.90;;;;;;5056828;28;20064;-72
2022/09/22 05:44:15;;;;;;;7.45;4.10;;;5.30;99.90;;;;;;5023567;28;20072;-72
2022/09/22 05:46:40;;;;;;;5.80;3.88;;;5.30;99.90;;;;;;5036388;28;20382;-74
2022/09/22 05:49:06;;;;;;;7.55;4.35;;;5.30;99.90;;;;;;5036714;28;20045;-74
2022/09/22 05:51:32;;;;;;;7.47;4.95;;;5.30;99.90;;;;;;5036984;28;20084;-75
2022/09/22 05:53:57;;;;;;;7.45;4.85;;;5.40;99.90;;;;;;5036545;28;20048;-73
2022/09/22 05:56:23;;;;;;;7.78;5.00;;;5.40;99.90;;;;;;5036199;28;20107;-72
2022/09/22 05:58:48;;;;;;;13.93;4.72;;;5.60;99.90;;;;;;5044736;28;20126;-72
2022/09/22 06:01:14;;;;;;;9.70;5.03;;;5.50;99.90;;;;;;5021746;28;20124;-73
2022/09/22 06:03:40;;;;;;;7.82;4.78;;;5.50;99.90;;;;;;5056253;28;20045;-74
2022/09/22 06:06:05;;;;;;;8.05;4.85;;;5.50;99.90;;;;;;5038453;28;20362;-72
2022/09/22 06:08:31;;;;;;;7.43;5.55;;;5.50;99.90;;;;;;5056340;28;20048;-72
2022/09/22 06:10:57;;;;;;;9.98;6.15;;;6.30;99.90;;;;;;5055503;28;20098;-72
2022/09/22 06:13:23;;;;;;;10.15;5.13;;;5.60;99.90;;;;;;5056033;28;20128;-74
2022/09/22 06:15:48;;;;;;;10.23;5.97;;;5.70;99.90;;;;;;5055666;28;20049;-74
2022/09/22 06:18:16;;;;;;;9.57;6.50;;;5.70;99.90;;;;;;5055979;28;20072;-73
2022/09/22 06:20:43;;;;;;;15.45;6.20;;;6.00;99.90;;;;;;5055896;28;20061;-74
2022/09/22 06:23:11;;;;;;;27.73;8.07;;;6.10;99.90;;;;;;5056066;28;20044;-72
2022/09/22 06:25:37;;;;;;;36.15;8.80;;;5.80;99.90;;;;;;5055617;28;20041;-74
2022/09/22 06:28:06;;;;;;;24.42;7.05;;;5.90;99.90;;;;;;5052875;28;20080;-74
2022/09/22 06:30:33;;;;;;;27.48;8.25;;;5.90;99.90;;;;;;5051772;28;20045;-72
2022/09/22 06:32:59;;;;;;;29.70;8.05;;;6.00;99.90;;;;;;5035826;28;20037;-73
2022/09/22 06:35:36;;;;;;;22.45;7.93;;;6.10;99.90;;;;;;5035923;28;20098;-72
2022/09/22 06:38:04;;;;;;;19.23;8.15;;;6.20;99.90;;;;;;5035801;28;20045;-73
2022/09/22 06:40:31;;;;;;;15.98;10.38;;;6.40;99.90;;;;;;5035660;28;20434;-72
2022/09/22 06:43:06;;;;;;;24.02;10.10;;;6.40;99.90;;;;;;5035541;28;20049;-73
2022/09/22 06:45:32;;;;;;;15.32;9.48;;;6.60;99.90;;;;;;5035528;28;20052;-73
2022/09/22 06:47:59;;;;;;;14.10;10.02;;;6.80;99.90;;;;;;5051235;28;20051;-74
2022/09/22 06:50:28;;;;;;;11.80;9.07;;;6.90;99.90;;;;;;5035709;28;20037;-73
2022/09/22 06:53:00;;;;;;;12.77;9.77;;;7.00;99.90;;;;;;5035361;28;20096;-72
2022/09/22 06:55:28;;;;;;;13.35;10.75;;;7.10;99.90;;;;;;5035231;28;20103;-72
2022/09/22 06:57:57;;;;;;;12.15;10.35;;;7.30;99.90;;;;;;5040810;28;20062;-72
2022/09/22 07:00:27;;;;;;;15.93;11.15;;;7.50;99.90;;;;;;5055553;28;20045;-72
2022/09/22 07:03:03;;;;;;;15.90;10.55;;;7.60;99.90;;;;;;5055027;28;20053;-72
2022/09/22 07:05:30;;;;;;;13.68;11.48;;;7.70;99.90;;;;;;5054904;28;20059;-74
2022/09/22 07:07:55;;;;;;;14.82;10.60;;;8.00;99.90;;;;;;5036795;28;20041;-73
2022/09/22 07:10:21;;;;;;;14.43;10.93;;;7.90;99.90;;;;;;5055399;28;20041;-73
2022/09/22 07:12:47;;;;;;;15.23;10.90;;;8.10;99.90;;;;;;5054782;28;20441;-74
2022/09/22 07:15:13;;;;;;;14.02;8.90;;;8.20;99.90;;;;;;5055242;28;20060;-74
2022/09/22 07:17:39;;;;;;;16.33;11.52;;;8.30;99.90;;;;;;5037256;28;20057;-72
2022/09/22 07:20:07;;;;;;;11.95;10.70;;;8.40;99.90;;;;;;5054567;28;20131;-73
2022/09/22 07:22:35;;;;;;;15.93;10.45;;;8.50;99.90;;;;;;5054816;28;20032;-73
2022/09/22 07:25:01;;;;;;;14.52;10.93;;;8.60;99.90;;;;;;5054434;28;20116;-72
2022/09/22 07:27:26;;;;;;;23.25;10.43;;;8.70;99.90;;;;;;5048415;28;20446;-74
2022/09/22 07:29:53;;;;;;;14.60;10.85;;;8.80;99.90;;;;;;5034689;28;20152;-74
2022/09/22 07:32:20;;;;;;;11.73;9.85;;;8.80;99.90;;;;;;5034762;28;20049;-72
2022/09/22 07:34:47;;;;;;;12.68;9.65;;;8.90;99.90;;;;;;5035065;28;20041;-73
2022/09/22 07:37:14;;;;;;;14.40;9.85;;;9.00;99.90;;;;;;5035126;28;20410;-73
2022/09/22 07:39:42;;;;;;;11.98;9.85;;;9.00;99.90;;;;;;5035075;28;20041;-73
2022/09/22 07:42:07;;;;;;;11.75;9.30;;;9.10;99.90;;;;;;5018306;28;20077;-73
2022/09/22 07:48:34;;;;;;;12.80;10.27;;;9.50;99.90;;;;;;5035659;28;20128;-73
2022/09/22 07:50:03;;;;;;;15.55;10.52;;;9.30;99.90;;;;;;5034586;28;20088;-74
2022/09/22 07:52:29;;;;;;;14.43;9.40;;;9.30;99.90;;;;;;5034601;28;20060;-74
2022/09/22 07:54:54;;;;;;;14.80;9.82;;;9.40;99.90;;;;;;5035004;28;20045;-72
2022/09/22 07:57:20;;;;;;;15.27;8.55;;;9.50;99.90;;;;;;5034485;28;20073;-74
2022/09/22 07:59:45;;;;;;;14.48;7.70;;;9.60;99.90;;;;;;5034469;28;20446;-74
2022/09/22 08:02:11;;;;;;;13.27;8.73;;;9.70;99.90;;;;;;5017360;28;20038;-74
2022/09/22 08:04:37;;;;;;;12.40;8.68;;;9.70;99.90;;;;;;5017677;28;20111;-73
2022/09/22 08:07:03;;;;;;;11.98;8.90;;;9.70;99.90;;;;;;5034682;28;20052;-73
2022/09/22 08:09:30;;;;;;;17.38;9.25;;;10.00;99.90;;;;;;5042427;28;20044;-73
2022/09/22 08:11:56;;;;;;;15.15;8.98;;;9.90;99.90;;;;;;5054417;28;20087;-73
2022/09/22 08:14:22;;;;;;;11.10;7.47;;;9.90;99.90;;;;;;5036850;28;20103;-72
2022/09/22 08:16:50;;;;;;;13.07;8.68;;;10.00;99.90;;;;;;5054085;28;20051;-74
2022/09/22 08:19:17;;;;;;;15.32;8.40;;;10.10;99.90;;;;;;5037270;28;20061;-72
2022/09/22 08:21:44;;;;;;;15.20;7.45;;;10.20;99.90;;;;;;5040473;28;20128;-72
2022/09/22 08:24:12;;;;;;;15.85;8.10;;;10.30;99.90;;;;;;5057822;28;20049;-73
2022/09/22 08:26:40;;;;;;;20.45;7.95;;;10.40;99.90;;;;;;5058011;28;20053;-73
2022/09/22 08:29:06;;;;;;;14.88;7.13;;;10.50;99.90;;;;;;5058402;28;20361;-73
2022/09/22 08:31:34;;;;;;;11.00;6.60;;;10.60;99.90;;;;;;5040853;28;20064;-72
2022/09/22 08:34:00;;;;;;;12.73;6.45;;;10.70;99.90;;;;;;5058055;28;20085;-72
2022/09/22 08:36:26;;;;;;;9.00;6.18;;;10.80;99.90;;;;;;5040698;28;20430;-75
2022/09/22 08:38:53;;;;;;;8.52;5.53;;;10.90;99.90;;;;;;5050798;28;20049;-72
2022/09/22 08:41:41;;;;;;;11.50;5.45;;;11.30;99.90;;;;;;5037636;28;20046;-74
2022/09/22 08:44:09;;;;;;;8.10;5.15;;;11.30;99.90;;;;;;5038081;28;20413;-74
2022/09/22 08:46:40;;;;;;;12.98;4.80;;;11.50;99.90;;;;;;5037938;28;20114;-74
2022/09/22 08:52:29;;;;;;;12.07;5.68;;;11.80;99.90;;;;;;5037551;28;20061;-73
2022/09/22 08:54:59;;;;;;;26.75;4.75;;;11.90;99.90;;;;;;5037713;28;20045;-74
2022/09/22 08:58:07;;;;;;;6.38;4.10;;;12.00;99.90;;;;;;5040717;28;20076;-73
2022/09/22 09:00:44;;;;;;;5.60;4.03;;;12.10;99.90;;;;;;5040212;28;20123;-74
2022/09/22 09:03:15;;;;;;;7.50;3.85;;;12.30;99.90;;;;;;5057693;28;20059;-73
2022/09/22 09:05:50;;;;;;;7.82;3.25;;;12.40;99.90;;;;;;5057456;28;20075;-73
2022/09/22 09:08:34;;;;;;;7.45;3.65;;;12.60;99.90;;;;;;5057342;28;20063;-73
2022/09/22 09:11:37;;;;;;;6.15;3.58;;;12.70;99.90;;;;;;5057245;28;20048;-73
2022/09/22 09:14:12;;;;;;;8.00;2.97;;;12.70;99.90;;;;;;5057029;28;20053;-73
2022/09/22 09:16:58;;;;;;;8.43;3.13;;;12.90;99.90;;;;;;5039352;28;20185;-73
2022/09/22 09:19:36;;;;;;;8.98;3.08;;;12.90;99.90;;;;;;5056869;28;20460;-73
2022/09/22 09:22:23;;;;;;;6.68;3.03;;;13.00;99.90;;;;;;5056954;28;20045;-75
2022/09/22 09:24:55;;;;;;;7.78;3.17;;;13.20;99.90;;;;;;5039451;28;20068;-73
2022/09/22 09:27:26;;;;;;;7.50;2.47;;;13.40;99.90;;;;;;5048928;28;20033;-73
2022/09/22 09:30:17;;;;;;;11.63;3.35;;;13.50;99.90;;;;;;5037141;28;20073;-74
2022/09/22 09:32:56;;;;;;;10.32;2.80;;;13.60;99.90;;;;;;5027156;28;20366;-75
2022/09/22 09:35:48;;;;;;;5.82;3.03;;;13.80;99.90;;;;;;5036967;28;20037;-74
2022/09/22 09:38:16;;;;;;;9.32;3.65;;;13.90;99.90;;;;;;5052092;28;20107;-73
2022/09/22 09:40:53;;;;;;;5.57;3.35;;;14.00;99.90;;;;;;5036770;28;20042;-73
2022/09/22 09:43:20;;;;;;;5.07;2.97;;;14.00;99.90;;;;;;5036688;28;20049;-73
2022/09/22 09:46:07;;;;;;;6.03;2.60;;;14.20;99.90;;;;;;5036528;28;20120;-73
2022/09/22 09:48:36;;;;;;;5.50;2.97;;;14.30;99.90;;;;;;5036548;28;20445;-74
2022/09/22 09:51:04;;;;;;;7.97;3.08;;;14.40;99.90;;;;;;5036903;28;20076;-74
2022/09/22 09:53:36;;;;;;;5.95;3.63;;;14.50;99.90;;;;;;5036601;28;20045;-75
2022/09/22 09:56:02;;;;;;;6.93;3.00;;;14.60;99.90;;;;;;5037329;28;20049;-74
2022/09/22 10:01:13;;;;;;;5.45;3.10;;;14.70;99.90;;;;;;5055958;28;20063;-73
2022/09/22 10:03:53;;;;;;;6.68;2.78;;;14.80;99.90;;;;;;5039068;28;20063;-73
2022/09/22 10:06:24;;;;;;;9.38;3.40;;;14.90;99.90;;;;;;5056273;28;20396;-74
2022/09/22 10:08:50;;;;;;;4.57;2.78;;;15.00;99.90;;;;;;5056103;28;20052;-73
2022/09/22 10:11:30;;;;;;;6.10;2.67;;;15.00;99.90;;;;;;5056108;28;20052;-72
2022/09/22 10:13:57;;;;;;;6.43;2.97;;;15.20;99.90;;;;;;5054501;28;20122;-74
2022/09/22 10:16:29;;;;;;;9.55;3.00;;;15.30;99.90;;;;;;5040757;28;20125;-75
2022/09/22 10:18:57;;;;;;;6.93;3.30;;;15.30;99.90;;;;;;5055731;28;20040;-74
2022/09/22 10:21:25;;;;;;;4.55;2.35;;;15.40;99.90;;;;;;5056030;28;20053;-73
2022/09/22 10:23:56;;;;;;;7.05;2.50;;;15.60;99.90;;;;;;5056002;28;20041;-74
2022/09/22 10:26:25;;;;;;;8.15;2.88;;;15.60;99.90;;;;;;5055948;28;20136;-74
2022/09/22 10:29:15;;;;;;;8.82;2.70;;;15.70;99.90;;;;;;5038207;28;20527;-74
2022/09/22 10:31:59;;;;;;;5.78;2.40;;;15.70;99.90;;;;;;5055557;28;20120;-74
2022/09/22 10:34:30;;;;;;;6.28;2.50;;;15.80;99.90;;;;;;5055234;28;20053;-75
2022/09/22 10:36:57;;;;;;;6.97;3.22;;;15.80;99.90;;;;;;5055758;28;20057;-74
2022/09/22 10:39:35;;;;;;;7.63;3.22;;;15.70;99.90;;;;;;5055487;28;20060;-73
2022/09/22 10:42:05;;;;;;;6.13;3.42;;;15.60;99.90;;;;;;5037370;28;20064;-73
2022/09/22 10:44:31;;;;;;;8.63;3.25;;;15.50;99.90;;;;;;5037561;28;20059;-73
2022/09/22 10:47:05;;;;;;;6.28;3.10;;;15.60;99.90;;;;;;5041470;28;20115;-74
2022/09/22 10:49:52;;;;;;;6.05;3.45;;;15.70;99.90;;;;;;5035641;28;20045;-74
2022/09/22 10:52:54;;;;;;;7.82;3.55;;;15.70;99.90;;;;;;5035410;28;20045;-73
2022/09/22 10:55:29;;;;;;;6.38;3.10;;;15.60;99.90;;;;;;5035434;28;20052;-73
2022/09/22 10:58:02;;;;;;;6.28;3.20;;;15.70;99.90;;;;;;5035568;28;20037;-75
2022/09/22 11:00:33;;;;;;;7.53;2.55;;;15.80;99.90;;;;;;5021669;28;20058;-75
2022/09/22 11:03:10;;;;;;;5.53;2.97;;;16.00;99.90;;;;;;5054883;28;20052;-73
2022/09/22 11:12:31;;;;;;;8.35;3.85;;;16.60;99.90;;;;;;5054882;28;20060;-74
2022/09/22 11:15:32;;;;;;;5.90;4.00;;;16.70;99.90;;;;;;5054510;28;20048;-75
2022/09/22 11:18:31;;;;;;;10.27;3.88;;;16.90;99.90;;;;;;5017744;28;20063;-74
2022/09/22 11:21:26;;;;;;;8.00;4.05;;;17.00;99.90;;;;;;5003808;28;20053;-76
2022/09/22 11:24:13;;;;;;;8.15;3.45;;;17.10;99.90;;;;;;5035107;28;20353;-73
2022/09/22 11:26:58;;;;;;;7.15;3.83;;;17.20;99.90;;;;;;5035006;28;20045;-73
2022/09/22 11:30:03;;;;;;;9.45;4.45;;;17.20;99.90;;;;;;5034760;28;20041;-73
2022/09/22 11:32:46;;;;;;;8.80;3.90;;;17.30;99.90;;;;;;5042223;28;20428;-73
2022/09/22 11:35:18;;;;;;;;;;;17.40;99.90;;;;;;5053534;28;20105;-73
2022/09/22 11:38:22;;;;;;;10.07;3.45;;;17.50;99.90;;;;;;5055132;28;20223;-74
2022/09/22 11:41:16;;;;;;;7.95;3.50;;;17.70;99.90;;;;;;5053608;28;20135;-76
2022/09/22 11:43:58;;;;;;;;;;;17.80;99.00;;;;;;5054980;28;20446;-74
2022/09/22 11:46:41;;;;;;;7.57;3.17;;;17.70;99.90;;;;;;5036912;28;19920;-73
2022/09/22 11:49:21;;;;;;;4.80;2.63;;;17.70;99.90;;;;;;5034994;28;20045;-74
2022/09/22 11:51:47;;;;;;;8.25;3.58;;;17.70;99.90;;;;;;5025561;28;20041;-74
2022/09/22 11:54:48;;;;;;;5.97;2.75;;;17.80;99.60;;;;;;5038534;28;20412;-73
2022/09/22 11:57:18;;;;;;;4.15;2.80;;;17.80;99.90;;;;;;5037897;28;20359;-73
2022/09/22 11:59:56;;;;;;;6.25;3.53;;;18.00;99.60;;;;;;5058729;28;20339;-74
2022/09/22 12:02:25;;;;;;;6.60;3.20;;;18.00;99.90;;;;;;5041051;28;20045;-74
2022/09/22 12:04:58;;;;;;;11.63;3.75;;;18.10;99.90;;;;;;5055334;28;20404;-74
2022/09/22 12:07:31;;;;;;;5.65;2.70;;;18.20;98.10;;;;;;5038531;28;20079;-74
2022/09/22 12:10:05;;;;;;;7.68;3.30;;;18.30;99.50;;;;;;5038390;28;20049;-73
2022/09/22 12:12:32;;;;;;;5.03;2.78;;;18.40;99.30;;;;;;5038544;28;20085;-75
2022/09/22 12:15:04;;;;;;;5.03;2.83;;;18.50;99.90;;;;;;5038284;28;20045;-75
2022/09/22 12:17:47;;;;;;;9.07;3.55;;;18.60;99.00;;;;;;5021213;28;20129;-74
2022/09/22 12:20:35;;;;;;;7.25;3.50;;;18.70;99.60;;;;;;5037962;28;20093;-75
2022/09/22 12:23:41;;;;;;;6.90;3.10;;;18.70;99.30;;;;;;5020809;28;20049;-74
2022/09/22 12:26:13;;;;;;;6.30;2.97;;;18.60;96.50;;;;;;5038487;28;20050;-74
2022/09/22 12:28:45;;;;;;;9.43;2.70;;;18.70;98.50;;;;;;5038293;28;20054;-74
2022/09/22 12:31:19;;;;;;;7.72;3.03;;;18.80;98.90;;;;;;5038550;28;20041;-73
2022/09/22 12:33:55;;;;;;;5.95;2.83;;;18.90;99.20;;;;;;5053656;28;20061;-73
2022/09/22 12:36:32;;;;;;;6.28;3.10;;;18.80;98.00;;;;;;5040163;28;20131;-74
2022/09/22 12:39:19;;;;;;;7.80;3.50;;;18.70;95.30;;;;;;5058176;28;20357;-73
2022/09/22 12:41:57;;;;;;;9.27;3.60;;;18.50;95.50;;;;;;5058291;28;20049;-73
2022/09/22 12:44:55;;;;;;;7.32;3.22;;;18.40;96.60;;;;;;5057593;28;20445;-73
2022/09/22 12:47:28;;;;;;;7.80;3.75;;;18.60;97.70;;;;;;5057690;28;20052;-74
2022/09/22 12:50:03;;;;;;;9.90;3.00;;;18.70;98.00;;;;;;5047510;28;20057;-76
2022/09/22 12:52:41;;;;;;;9.65;3.60;;;18.80;97.40;;;;;;5037587;28;20465;-74
2022/09/22 12:55:28;;;;;;;6.95;3.83;;;19.00;98.60;;;;;;5037873;28;20136;-74
2022/09/22 12:57:55;;;;;;;10.38;3.40;;;19.20;96.00;;;;;;5037653;28;20409;-74
2022/09/22 13:00:39;;;;;;;14.45;3.97;;;19.20;98.30;;;;;;5037577;28;20050;-74
2022/09/22 13:03:23;;;;;;;9.95;3.28;;;19.10;94.30;;;;;;5053675;28;20052;-74
2022/09/22 13:05:58;;;;;;;9.00;3.60;;;18.90;95.40;;;;;;5055907;28;20052;-74
2022/09/22 13:08:26;;;;;;;6.63;3.30;;;18.80;95.40;;;;;;5057362;28;20041;-73
2022/09/22 13:10:55;;;;;;;5.68;3.47;;;18.60;96.80;;;;;;5057256;28;20045;-74
2022/09/22 13:13:44;;;;;;;11.45;4.03;;;18.60;97.50;;;;;;5057137;28;20033;-74
2022/09/22 13:16:15;;;;;;;6.18;3.20;;;18.40;96.00;;;;;;5057517;28;20087;-73
2022/09/22 13:19:05;;;;;;;8.00;3.55;;;18.50;98.50;;;;;;5052511;28;20103;-74
2022/09/22 13:21:32;;;;;;;9.40;2.80;;;18.70;96.40;;;;;;5036867;28;20402;-75
2022/09/22 13:24:03;;;;;;;8.50;3.70;;;18.80;97.70;;;;;;5050356;28;20045;-76
2022/09/22 13:26:39;;;;;;;5.78;3.15;;;18.90;96.20;;;;;;5056334;28;20466;-73
2022/09/22 13:29:12;;;;;;;7.90;3.72;;;19.00;97.30;;;;;;5057114;28;20045;-74